sensor_id;sensor_type;location;lat;lon;timestamp;pressure;altitude;pressure_sealevel;temperature;humidity
22775;BME280;11554;51.106;3.684;2022-07-06T00:00:00;102655.2;;;12.06;76.99
22775;BME280;11554;51.106;3.684;2022-07-06T00:05:00;102659.77;;;11.98;77.29
22775;BME280;11554;51.106;3.684;2022-07-06T00:10:00;102657.18999999999;;;11.85;74.52
22775;BME280;11554;51.106;3.684;2022-07-06T00:15:00;102658.33;;;11.84;79.57
22775;BME280;11554;51.106;3.684;2022-07-06T00:20:00;102657.59000000001;;;11.81;79.8
22775;BME280;11554;51.106;3.684;2022-07-06T00:25:00;102656.24;;;11.94;84.86
22775;BME280;11554;51.106;3.684;2022-07-06T00:30:00;102662.66;;;11.75;75.94
22775;BME280;11554;51.106;3.684;2022-07-06T00:35:00;102665.91;;;11.66;75.96
22775;BME280;11554;51.106;3.684;2022-07-06T00:40:00;102658.04000000001;;;11.75;79.83
22775;BME280;11554;51.106;3.684;2022-07-06T00:45:00;102651.72;;;11.70;81.03
22775;BME280;11554;51.106;3.684;2022-07-06T00:50:00;102651.66999999998;;;11.84;86.53
22775;BME280;11554;51.106;3.684;2022-07-06T00:55:00;102649.96;;;11.89;88.41
22775;BME280;11554;51.106;3.684;2022-07-06T01:00:00;102646.03;;;11.88;88.76
22775;BME280;11554;51.106;3.684;2022-07-06T01:05:00;102643.99;;;11.99;92.23
22775;BME280;11554;51.106;3.684;2022-07-06T01:10:00;102644.48;;;12.04;91.69
22775;BME280;11554;51.106;3.684;2022-07-06T01:15:00;102649.17;;;12.14;91.49
22775;BME280;11554;51.106;3.684;2022-07-06T01:20:07;102647.56;;;12.26;93.73
22775;BME280;11554;51.106;3.684;2022-07-06T01:25:00;102646.19;;;12.33;96.17
22775;BME280;11554;51.106;3.684;2022-07-06T01:30:00;102648.08;;;12.38;97.13
22775;BME280;11554;51.106;3.684;2022-07-06T01:35:00;102644.31999999999;;;12.43;98.31
22775;BME280;11554;51.106;3.684;2022-07-06T01:40:00;102641.04;;;12.38;96.08
22775;BME280;11554;51.106;3.684;2022-07-06T01:45:00;102638.9;;;12.32;96.37
22775;BME280;11554;51.106;3.684;2022-07-06T01:50:00;102625.15000000001;;;12.29;98.56
22775;BME280;11554;51.106;3.684;2022-07-06T01:55:00;102614.78;;;12.20;100.0
22775;BME280;11554;51.106;3.684;2022-07-06T02:00:00;102619.41999999998;;;12.08;100.0
22775;BME280;11554;51.106;3.684;2022-07-06T02:05:00;102625.01;;;12.00;100.0
22775;BME280;11554;51.106;3.684;2022-07-06T02:10:00;102624.89;;;11.93;100.0
22775;BME280;11554;51.106;3.684;2022-07-06T02:15:00;102625.32;;;11.89;100.0
22775;BME280;11554;51.106;3.684;2022-07-06T02:20:00;102632.78;;;11.75;100.0
22775;BME280;11554;51.106;3.684;2022-07-06T02:25:00;102625.15000000001;;;11.69;100.0
22775;BME280;11554;51.106;3.684;2022-07-06T02:30:00;102618.26000000001;;;11.65;100.0
22775;BME280;11554;51.106;3.684;2022-07-06T02:35:00;102613.51;;;11.59;100.0
22775;BME280;11554;51.106;3.684;2022-07-06T02:40:00;102612.34;;;11.59;100.0
22775;BME280;11554;51.106;3.684;2022-07-06T02:45:00;102613.59;;;11.59;100.0
22775;BME280;11554;51.106;3.684;2022-07-06T02:50:00;102613.18000000001;;;11.46;100.0
22775;BME280;11554;51.106;3.684;2022-07-06T02:55:00;102614.31;;;11.32;100.0
22775;BME280;11554;51.106;3.684;2022-07-06T03:00:00;102618.31999999999;;;11.25;100.0
22775;BME280;11554;51.106;3.684;2022-07-06T03:05:00;102624.62000000001;;;11.12;100.0
22775;BME280;11554;51.106;3.684;2022-07-06T03:10:00;102617.0;;;11.00;100.0
22775;BME280;11554;51.106;3.684;2022-07-06T03:15:00;102616.03;;;10.91;100.0
22775;BME280;11554;51.106;3.684;2022-07-06T03:20:00;102613.78;;;10.98;100.0
22775;BME280;11554;51.106;3.684;2022-07-06T03:25:00;102614.21;;;10.94;100.0
22775;BME280;11554;51.106;3.684;2022-07-06T03:30:00;102618.26000000001;;;10.92;100.0
22775;BME280;11554;51.106;3.684;2022-07-06T03:35:00;102623.47;;;10.93;100.0
22775;BME280;11554;51.106;3.684;2022-07-06T03:40:00;102624.65;;;10.82;100.0
22775;BME280;11554;51.106;3.684;2022-07-06T03:45:00;102622.09;;;10.84;100.0
22775;BME280;11554;51.106;3.684;2022-07-06T03:50:00;102625.32;;;10.83;100.0
22775;BME280;11554;51.106;3.684;2022-07-06T03:55:00;102634.03000000001;;;10.93;100.0
22775;BME280;11554;51.106;3.684;2022-07-06T04:00:00;102624.07;;;11.04;100.0
22775;BME280;11554;51.106;3.684;2022-07-06T04:05:00;102624.16;;;11.06;100.0
22775;BME280;11554;51.106;3.684;2022-07-06T04:10:00;102622.51000000001;;;11.14;100.0
22775;BME280;11554;51.106;3.684;2022-07-06T04:15:00;102623.75;;;11.29;100.0
22775;BME280;11554;51.106;3.684;2022-07-06T04:20:00;102626.34000000001;;;11.41;100.0
22775;BME280;11554;51.106;3.684;2022-07-06T04:25:00;102629.56999999999;;;11.52;100.0
22775;BME280;11554;51.106;3.684;2022-07-06T04:30:00;102625.93;;;11.64;100.0
22775;BME280;11554;51.106;3.684;2022-07-06T04:35:00;102624.93;;;11.75;100.0
22775;BME280;11554;51.106;3.684;2022-07-06T04:40:00;102622.74;;;11.88;100.0
22775;BME280;11554;51.106;3.684;2022-07-06T04:45:00;102628.2;;;12.05;100.0
22775;BME280;11554;51.106;3.684;2022-07-06T04:50:00;102628.81;;;12.48;100.0
22775;BME280;11554;51.106;3.684;2022-07-06T04:55:00;102623.19;;;13.62;100.0
22775;BME280;11554;51.106;3.684;2022-07-06T05:00:00;102626.12;;;14.36;100.0
22775;BME280;11554;51.106;3.684;2022-07-06T05:05:00;102628.0;;;15.22;100.0
22775;BME280;11554;51.106;3.684;2022-07-06T05:10:00;102633.06999999999;;;16.55;100.0
22775;BME280;11554;51.106;3.684;2022-07-06T05:15:00;102645.92;;;17.23;100.0
22775;BME280;11554;51.106;3.684;2022-07-06T05:20:00;102647.90000000001;;;17.69;100.0
22775;BME280;11554;51.106;3.684;2022-07-06T05:25:00;102645.08;;;17.63;97.51
22775;BME280;11554;51.106;3.684;2022-07-06T05:30:00;102642.51999999999;;;17.64;97.41
22775;BME280;11554;51.106;3.684;2022-07-06T05:35:00;102643.58;;;17.88;95.57
22775;BME280;11554;51.106;3.684;2022-07-06T05:40:00;102648.57999999999;;;18.16;96.79
22775;BME280;11554;51.106;3.684;2022-07-06T05:45:00;102653.53;;;19.16;93.01
22775;BME280;11554;51.106;3.684;2022-07-06T05:50:00;102655.53;;;19.51;90.59
22775;BME280;11554;51.106;3.684;2022-07-06T05:55:00;102650.68000000001;;;19.41;89.96
22775;BME280;11554;51.106;3.684;2022-07-06T06:00:00;102645.35;;;19.79;90.1
22775;BME280;11554;51.106;3.684;2022-07-06T06:05:00;102641.98;;;19.96;88.41
22775;BME280;11554;51.106;3.684;2022-07-06T06:10:00;102647.13999999998;;;20.20;87.65
22775;BME280;11554;51.106;3.684;2022-07-06T06:15:00;102653.7;;;20.89;86.73
22775;BME280;11554;51.106;3.684;2022-07-06T06:20:00;102649.73;;;21.50;85.31
22775;BME280;11554;51.106;3.684;2022-07-06T06:25:00;102640.19;;;22.44;82.45
22775;BME280;11554;51.106;3.684;2022-07-06T06:30:00;102637.78;;;22.43;77.71
22775;BME280;11554;51.106;3.684;2022-07-06T06:35:00;102649.4;;;22.93;78.57
22775;BME280;11554;51.106;3.684;2022-07-06T06:40:00;102652.0;;;23.75;74.88
22775;BME280;11554;51.106;3.684;2022-07-06T06:45:00;102658.48000000001;;;24.08;72.07
22775;BME280;11554;51.106;3.684;2022-07-06T06:50:00;102668.68;;;24.95;68.96
22775;BME280;11554;51.106;3.684;2022-07-06T06:55:00;102676.61;;;25.38;68.09
22775;BME280;11554;51.106;3.684;2022-07-06T07:00:00;102679.17;;;25.32;64.95
22775;BME280;11554;51.106;3.684;2022-07-06T07:05:00;102676.17;;;25.75;62.19
22775;BME280;11554;51.106;3.684;2022-07-06T07:10:00;102670.43000000001;;;26.08;61.55
22775;BME280;11554;51.106;3.684;2022-07-06T07:15:00;102674.22999999998;;;26.01;58.88
22775;BME280;11554;51.106;3.684;2022-07-06T07:20:00;102674.43000000001;;;26.23;58.0
22775;BME280;11554;51.106;3.684;2022-07-06T07:25:00;102670.41999999998;;;26.07;52.17
22775;BME280;11554;51.106;3.684;2022-07-06T07:30:00;102665.14;;;26.50;53.21
22775;BME280;11554;51.106;3.684;2022-07-06T07:35:00;102665.96999999999;;;26.97;52.67
22775;BME280;11554;51.106;3.684;2022-07-06T07:40:00;102660.01000000001;;;27.46;46.42
22775;BME280;11554;51.106;3.684;2022-07-06T07:45:00;102661.61;;;27.71;40.51
22775;BME280;11554;51.106;3.684;2022-07-06T07:50:00;102661.32;;;27.80;36.33
22775;BME280;11554;51.106;3.684;2022-07-06T07:55:00;102648.90000000001;;;27.10;39.11
22775;BME280;11554;51.106;3.684;2022-07-06T08:00:00;102648.76999999999;;;26.26;39.37
22775;BME280;11554;51.106;3.684;2022-07-06T08:05:00;102643.69999999998;;;25.74;41.55
22775;BME280;11554;51.106;3.684;2022-07-06T08:10:00;102627.74999999999;;;26.98;40.13
22775;BME280;11554;51.106;3.684;2022-07-06T08:15:00;102621.46;;;27.58;38.83
22775;BME280;11554;51.106;3.684;2022-07-06T08:20:00;102621.83;;;28.11;37.32
22775;BME280;11554;51.106;3.684;2022-07-06T08:25:00;102608.0;;;28.26;36.53
22775;BME280;11554;51.106;3.684;2022-07-06T08:30:00;102608.98;;;27.69;37.75
22775;BME280;11554;51.106;3.684;2022-07-06T08:35:00;102607.96;;;25.82;37.51
22775;BME280;11554;51.106;3.684;2022-07-06T08:40:00;102609.58;;;25.87;41.47
22775;BME280;11554;51.106;3.684;2022-07-06T08:45:00;102608.87;;;26.09;41.15
22775;BME280;11554;51.106;3.684;2022-07-06T08:50:00;102617.24999999999;;;25.85;41.24
22775;BME280;11554;51.106;3.684;2022-07-06T08:55:00;102623.13999999998;;;25.54;40.55
22775;BME280;11554;51.106;3.684;2022-07-06T09:00:00;102628.63;;;25.17;40.55
22775;BME280;11554;51.106;3.684;2022-07-06T09:05:00;102622.95;;;24.43;41.7
22775;BME280;11554;51.106;3.684;2022-07-06T09:10:00;102625.2;;;24.66;44.74
22775;BME280;11554;51.106;3.684;2022-07-06T09:15:00;102623.08;;;25.46;43.4
22775;BME280;11554;51.106;3.684;2022-07-06T09:20:00;102617.35;;;26.00;42.04
22775;BME280;11554;51.106;3.684;2022-07-06T09:25:02;102621.17000000001;;;25.94;42.27
22775;BME280;11554;51.106;3.684;2022-07-06T09:30:00;102621.97000000002;;;25.95;41.73
22775;BME280;11554;51.106;3.684;2022-07-06T09:35:00;102624.20999999999;;;25.72;40.88
22775;BME280;11554;51.106;3.684;2022-07-06T09:40:00;102636.32;;;25.30;41.75
22775;BME280;11554;51.106;3.684;2022-07-06T09:45:00;102639.7;;;25.54;42.91
22775;BME280;11554;51.106;3.684;2022-07-06T09:50:00;102634.58;;;25.74;42.44
22775;BME280;11554;51.106;3.684;2022-07-06T09:55:00;102631.18;;;26.16;41.61
22775;BME280;11554;51.106;3.684;2022-07-06T10:00:00;102631.14;;;26.76;40.43
22775;BME280;11554;51.106;3.684;2022-07-06T10:05:00;102628.96;;;27.21;38.87
22775;BME280;11554;51.106;3.684;2022-07-06T10:10:00;102627.33;;;26.99;38.15
22775;BME280;11554;51.106;3.684;2022-07-06T10:15:00;102633.3;;;26.70;40.25
22775;BME280;11554;51.106;3.684;2022-07-06T10:20:00;102637.55000000002;;;26.26;39.59
22775;BME280;11554;51.106;3.684;2022-07-06T10:25:00;102637.51;;;26.91;40.6
22775;BME280;11554;51.106;3.684;2022-07-06T10:30:00;102636.35999999999;;;27.56;39.99
22775;BME280;11554;51.106;3.684;2022-07-06T10:35:00;102630.24;;;27.91;39.65
22775;BME280;11554;51.106;3.684;2022-07-06T10:40:00;102625.83;;;28.09;38.13
22775;BME280;11554;51.106;3.684;2022-07-06T10:45:00;102620.91;;;28.34;35.41
22775;BME280;11554;51.106;3.684;2022-07-06T10:50:00;102624.11;;;29.78;35.18
22775;BME280;11554;51.106;3.684;2022-07-06T10:55:00;102632.51000000001;;;29.10;36.36
22775;BME280;11554;51.106;3.684;2022-07-06T11:00:00;102627.25;;;28.54;36.11
22775;BME280;11554;51.106;3.684;2022-07-06T11:05:00;102617.23999999999;;;28.28;35.75
22775;BME280;11554;51.106;3.684;2022-07-06T11:10:00;102609.71999999999;;;28.38;35.97
22775;BME280;11554;51.106;3.684;2022-07-06T11:15:00;102608.75000000001;;;29.46;36.29
22775;BME280;11554;51.106;3.684;2022-07-06T11:20:08;102609.79999999999;;;29.31;35.68
22775;BME280;11554;51.106;3.684;2022-07-06T11:25:00;102606.6;;;29.59;34.58
22775;BME280;11554;51.106;3.684;2022-07-06T11:30:00;102614.31;;;29.68;34.94
22775;BME280;11554;51.106;3.684;2022-07-06T11:35:00;102606.32;;;29.54;34.43
22775;BME280;11554;51.106;3.684;2022-07-06T11:40:05;102594.98000000001;;;30.65;32.77
22775;BME280;11554;51.106;3.684;2022-07-06T11:45:00;102585.89;;;30.70;32.78
22775;BME280;11554;51.106;3.684;2022-07-06T11:50:00;102582.58;;;31.01;33.97
22775;BME280;11554;51.106;3.684;2022-07-06T11:55:00;102573.71;;;30.27;31.15
22775;BME280;11554;51.106;3.684;2022-07-06T12:00:00;102573.20999999999;;;29.65;34.13
22775;BME280;11554;51.106;3.684;2022-07-06T12:05:00;102574.05000000002;;;30.64;30.05
22775;BME280;11554;51.106;3.684;2022-07-06T12:10:00;102566.09000000001;;;31.04;32.87
22775;BME280;11554;51.106;3.684;2022-07-06T12:15:00;102560.01000000001;;;31.61;30.68
22775;BME280;11554;51.106;3.684;2022-07-06T12:20:00;102567.60999999999;;;31.97;31.19
22775;BME280;11554;51.106;3.684;2022-07-06T12:25:00;102569.25000000001;;;31.81;31.99
22775;BME280;11554;51.106;3.684;2022-07-06T12:30:07;102561.83000000002;;;31.93;30.23
22775;BME280;11554;51.106;3.684;2022-07-06T12:35:03;102566.00000000001;;;31.12;33.07
22775;BME280;11554;51.106;3.684;2022-07-06T12:40:00;102556.21;;;31.38;32.67
22775;BME280;11554;51.106;3.684;2022-07-06T12:45:00;102556.18;;;31.33;31.66
22775;BME280;11554;51.106;3.684;2022-07-06T12:50:03;102543.48;;;31.60;32.78
22775;BME280;11554;51.106;3.684;2022-07-06T12:55:01;102535.06;;;32.26;31.12
22775;BME280;11554;51.106;3.684;2022-07-06T13:00:00;102536.57;;;33.00;32.02
22775;BME280;11554;51.106;3.684;2022-07-06T13:05:01;102539.59999999999;;;31.81;30.8
22775;BME280;11554;51.106;3.684;2022-07-06T13:10:00;102541.04999999999;;;31.23;31.86
22775;BME280;11554;51.106;3.684;2022-07-06T13:15:00;102532.53;;;30.47;32.75
22775;BME280;11554;51.106;3.684;2022-07-06T13:20:00;102524.65999999999;;;30.22;32.1
22775;BME280;11554;51.106;3.684;2022-07-06T13:25:00;102519.48;;;30.33;33.73
22775;BME280;11554;51.106;3.684;2022-07-06T13:30:00;102507.34999999999;;;30.88;34.56
22775;BME280;11554;51.106;3.684;2022-07-06T13:35:00;102505.09;;;31.61;34.5
22775;BME280;11554;51.106;3.684;2022-07-06T13:40:00;102505.52;;;31.18;32.2
22775;BME280;11554;51.106;3.684;2022-07-06T13:45:00;102499.04;;;31.55;32.54
22775;BME280;11554;51.106;3.684;2022-07-06T13:50:00;102500.16;;;30.41;33.27
22775;BME280;11554;51.106;3.684;2022-07-06T13:55:00;102498.95;;;29.90;34.18
22775;BME280;11554;51.106;3.684;2022-07-06T14:00:00;102492.0;;;29.51;33.24
22775;BME280;11554;51.106;3.684;2022-07-06T14:05:00;102485.6;;;28.96;34.03
22775;BME280;11554;51.106;3.684;2022-07-06T14:10:00;102483.42;;;28.60;35.25
22775;BME280;11554;51.106;3.684;2022-07-06T14:15:00;102471.76999999999;;;28.88;37.36
22775;BME280;11554;51.106;3.684;2022-07-06T14:20:00;102483.54;;;28.60;37.0
22775;BME280;11554;51.106;3.684;2022-07-06T14:25:00;102488.53;;;28.09;37.24
22775;BME280;11554;51.106;3.684;2022-07-06T14:30:00;102480.32;;;27.57;37.81
22775;BME280;11554;51.106;3.684;2022-07-06T14:35:00;102491.56;;;26.98;39.69
22775;BME280;11554;51.106;3.684;2022-07-06T14:40:00;102495.97000000002;;;26.84;40.23
22775;BME280;11554;51.106;3.684;2022-07-06T14:45:00;102490.36000000002;;;26.18;40.71
22775;BME280;11554;51.106;3.684;2022-07-06T14:50:00;102483.99999999999;;;26.34;41.53
22775;BME280;11554;51.106;3.684;2022-07-06T14:55:00;102474.96;;;27.06;41.34
22775;BME280;11554;51.106;3.684;2022-07-06T15:00:00;102476.35;;;28.21;39.81
22775;BME280;11554;51.106;3.684;2022-07-06T15:05:00;102477.98;;;28.88;36.51
22775;BME280;11554;51.106;3.684;2022-07-06T15:10:00;102469.69999999998;;;28.45;35.58
22775;BME280;11554;51.106;3.684;2022-07-06T15:15:00;102469.58;;;28.50;35.15
22775;BME280;11554;51.106;3.684;2022-07-06T15:20:00;102468.2;;;28.43;35.5
22775;BME280;11554;51.106;3.684;2022-07-06T15:25:00;102467.04;;;28.26;36.29
22775;BME280;11554;51.106;3.684;2022-07-06T15:30:00;102468.84999999999;;;28.20;35.3
22775;BME280;11554;51.106;3.684;2022-07-06T15:35:00;102468.68;;;28.41;35.1
22775;BME280;11554;51.106;3.684;2022-07-06T15:40:00;102459.75000000001;;;27.93;35.57
22775;BME280;11554;51.106;3.684;2022-07-06T15:45:00;102449.18000000001;;;28.01;35.08
22775;BME280;11554;51.106;3.684;2022-07-06T15:50:00;102450.62000000001;;;28.20;34.98
22775;BME280;11554;51.106;3.684;2022-07-06T15:55:00;102447.47;;;28.58;34.05
22775;BME280;11554;51.106;3.684;2022-07-06T16:00:00;102442.48;;;27.97;32.71
22775;BME280;11554;51.106;3.684;2022-07-06T16:05:00;102435.62999999999;;;28.32;34.46
22775;BME280;11554;51.106;3.684;2022-07-06T16:10:00;102429.68000000001;;;28.25;33.25
22775;BME280;11554;51.106;3.684;2022-07-06T16:15:00;102421.12999999999;;;28.10;34.83
22775;BME280;11554;51.106;3.684;2022-07-06T16:20:00;102410.06;;;27.85;37.14
22775;BME280;11554;51.106;3.684;2022-07-06T16:25:00;102406.76000000001;;;27.50;38.29
22775;BME280;11554;51.106;3.684;2022-07-06T16:30:00;102404.41;;;27.10;39.76
22775;BME280;11554;51.106;3.684;2022-07-06T16:35:00;102401.06000000001;;;26.84;40.13
22775;BME280;11554;51.106;3.684;2022-07-06T16:40:00;102408.52;;;26.86;41.22
22775;BME280;11554;51.106;3.684;2022-07-06T16:45:00;102412.55000000002;;;26.56;42.97
22775;BME280;11554;51.106;3.684;2022-07-06T16:50:00;102406.65;;;26.05;43.69
22775;BME280;11554;51.106;3.684;2022-07-06T16:55:00;102403.31000000001;;;25.80;44.6
22775;BME280;11554;51.106;3.684;2022-07-06T17:00:00;102388.7;;;25.90;45.13
22775;BME280;11554;51.106;3.684;2022-07-06T17:05:00;102389.62;;;25.69;44.93
22775;BME280;11554;51.106;3.684;2022-07-06T17:10:00;102390.91;;;25.65;45.88
22775;BME280;11554;51.106;3.684;2022-07-06T17:15:00;102379.40999999999;;;25.51;45.54
22775;BME280;11554;51.106;3.684;2022-07-06T17:20:00;102375.09;;;25.41;45.66
22775;BME280;11554;51.106;3.684;2022-07-06T17:25:00;102372.42;;;24.92;46.3
22775;BME280;11554;51.106;3.684;2022-07-06T17:30:00;102374.87999999999;;;24.72;47.19
22775;BME280;11554;51.106;3.684;2022-07-06T17:35:00;102375.97;;;24.48;48.15
22775;BME280;11554;51.106;3.684;2022-07-06T17:40:00;102376.73;;;24.14;49.04
22775;BME280;11554;51.106;3.684;2022-07-06T17:45:00;102378.35;;;23.93;49.7
22775;BME280;11554;51.106;3.684;2022-07-06T17:50:00;102373.42;;;23.64;50.9
22775;BME280;11554;51.106;3.684;2022-07-06T17:55:00;102366.74;;;23.39;51.78
22775;BME280;11554;51.106;3.684;2022-07-06T18:00:00;102363.53;;;23.30;52.05
22775;BME280;11554;51.106;3.684;2022-07-06T18:05:00;102364.03;;;22.98;52.73
22775;BME280;11554;51.106;3.684;2022-07-06T18:10:00;102352.08;;;23.01;53.01
22775;BME280;11554;51.106;3.684;2022-07-06T18:15:00;102359.84999999999;;;22.89;53.34
22775;BME280;11554;51.106;3.684;2022-07-06T18:20:00;102349.44;;;22.59;54.58
22775;BME280;11554;51.106;3.684;2022-07-06T18:25:00;102347.02;;;22.46;54.85
22775;BME280;11554;51.106;3.684;2022-07-06T18:30:00;102351.19;;;22.29;56.05
22775;BME280;11554;51.106;3.684;2022-07-06T18:35:00;102348.26000000001;;;22.19;56.04
22775;BME280;11554;51.106;3.684;2022-07-06T18:40:00;102347.16;;;22.05;56.4
22775;BME280;11554;51.106;3.684;2022-07-06T18:45:00;102357.78;;;21.71;57.22
22775;BME280;11554;51.106;3.684;2022-07-06T18:50:00;102352.69;;;21.70;57.58
22775;BME280;11554;51.106;3.684;2022-07-06T18:55:00;102356.7;;;21.65;58.06
22775;BME280;11554;51.106;3.684;2022-07-06T19:00:00;102347.25;;;21.58;58.31
22775;BME280;11554;51.106;3.684;2022-07-06T19:05:00;102343.16;;;21.55;58.58
22775;BME280;11554;51.106;3.684;2022-07-06T19:10:00;102343.26;;;21.48;58.48
22775;BME280;11554;51.106;3.684;2022-07-06T19:15:00;102340.67;;;21.39;59.64
22775;BME280;11554;51.106;3.684;2022-07-06T19:20:00;102346.56;;;21.29;59.77
22775;BME280;11554;51.106;3.684;2022-07-06T19:25:00;102336.44;;;21.13;60.56
22775;BME280;11554;51.106;3.684;2022-07-06T19:30:00;102327.66;;;21.04;60.02
22775;BME280;11554;51.106;3.684;2022-07-06T19:35:00;102318.34;;;20.95;60.34
22775;BME280;11554;51.106;3.684;2022-07-06T19:40:00;102318.93;;;20.88;60.24
22775;BME280;11554;51.106;3.684;2022-07-06T19:45:00;102323.51999999999;;;20.76;60.85
22775;BME280;11554;51.106;3.684;2022-07-06T19:50:00;102326.62;;;20.69;60.92
22775;BME280;11554;51.106;3.684;2022-07-06T19:55:00;102327.42;;;20.60;61.33
22775;BME280;11554;51.106;3.684;2022-07-06T20:00:00;102328.72;;;20.56;61.76
22775;BME280;11554;51.106;3.684;2022-07-06T20:05:00;102330.9;;;20.50;61.64
22775;BME280;11554;51.106;3.684;2022-07-06T20:10:00;102334.95;;;20.43;61.8
22775;BME280;11554;51.106;3.684;2022-07-06T20:15:00;102340.35;;;20.35;62.29
22775;BME280;11554;51.106;3.684;2022-07-06T20:20:00;102330.69;;;20.27;63.64
22775;BME280;11554;51.106;3.684;2022-07-06T20:25:00;102331.92;;;20.20;63.45
22775;BME280;11554;51.106;3.684;2022-07-06T20:30:00;102330.61;;;20.11;64.99
22775;BME280;11554;51.106;3.684;2022-07-06T20:35:00;102326.70000000001;;;20.05;65.21
22775;BME280;11554;51.106;3.684;2022-07-06T20:40:00;102325.59;;;19.97;66.04
22775;BME280;11554;51.106;3.684;2022-07-06T20:45:00;102324.87999999999;;;19.85;66.64
22775;BME280;11554;51.106;3.684;2022-07-06T20:50:00;102323.25;;;19.72;66.52
22775;BME280;11554;51.106;3.684;2022-07-06T20:55:00;102319.45;;;19.63;67.71
22775;BME280;11554;51.106;3.684;2022-07-06T21:00:00;102318.48;;;19.50;67.42
22775;BME280;11554;51.106;3.684;2022-07-06T21:05:00;102311.65999999999;;;19.33;69.07
22775;BME280;11554;51.106;3.684;2022-07-06T21:10:00;102309.33;;;19.21;69.25
22775;BME280;11554;51.106;3.684;2022-07-06T21:15:00;102311.72;;;19.12;70.86
22775;BME280;11554;51.106;3.684;2022-07-06T21:20:00;102312.34;;;19.05;69.86
22775;BME280;11554;51.106;3.684;2022-07-06T21:25:00;102305.89;;;18.93;70.94
22775;BME280;11554;51.106;3.684;2022-07-06T21:30:00;102294.16;;;18.85;70.67
22775;BME280;11554;51.106;3.684;2022-07-06T21:35:00;102291.07;;;18.75;71.04
22775;BME280;11554;51.106;3.684;2022-07-06T21:40:00;102291.24;;;18.62;70.44
22775;BME280;11554;51.106;3.684;2022-07-06T21:45:00;102290.92000000001;;;18.49;71.48
22775;BME280;11554;51.106;3.684;2022-07-06T21:50:00;102284.67000000001;;;18.36;72.09
22775;BME280;11554;51.106;3.684;2022-07-06T21:55:00;102284.51;;;18.25;73.97
22775;BME280;11554;51.106;3.684;2022-07-06T22:00:00;102283.36;;;18.16;74.0
22775;BME280;11554;51.106;3.684;2022-07-06T22:05:00;102272.05;;;18.07;74.26
22775;BME280;11554;51.106;3.684;2022-07-06T22:10:00;102270.31;;;18.01;76.16
22775;BME280;11554;51.106;3.684;2022-07-06T22:15:01;102267.85;;;17.95;75.53
22775;BME280;11554;51.106;3.684;2022-07-06T22:20:00;102268.05;;;17.86;75.73
22775;BME280;11554;51.106;3.684;2022-07-06T22:25:00;102269.76;;;17.79;77.31
22775;BME280;11554;51.106;3.684;2022-07-06T22:30:01;102274.84;;;17.71;76.66
22775;BME280;11554;51.106;3.684;2022-07-06T22:35:00;102274.72;;;17.63;79.04
22775;BME280;11554;51.106;3.684;2022-07-06T22:40:00;102263.14;;;17.62;80.22
22775;BME280;11554;51.106;3.684;2022-07-06T22:45:00;102271.62;;;17.64;81.87
22775;BME280;11554;51.106;3.684;2022-07-06T22:50:00;102270.06;;;17.57;82.54
22775;BME280;11554;51.106;3.684;2022-07-06T22:55:00;102270.04;;;17.51;82.12
22775;BME280;11554;51.106;3.684;2022-07-06T23:00:00;102273.87999999999;;;17.44;82.22
22775;BME280;11554;51.106;3.684;2022-07-06T23:05:00;102267.25;;;17.42;82.32
22775;BME280;11554;51.106;3.684;2022-07-06T23:10:00;102259.64;;;17.51;82.55
22775;BME280;11554;51.106;3.684;2022-07-06T23:15:00;102260.1;;;17.57;83.02
22775;BME280;11554;51.106;3.684;2022-07-06T23:20:00;102254.94;;;17.63;83.79
22775;BME280;11554;51.106;3.684;2022-07-06T23:25:00;102254.88;;;17.68;84.52
22775;BME280;11554;51.106;3.684;2022-07-06T23:30:00;102252.53;;;17.71;84.72
22775;BME280;11554;51.106;3.684;2022-07-06T23:35:00;102251.76;;;17.75;83.54
22775;BME280;11554;51.106;3.684;2022-07-06T23:40:00;102240.93000000001;;;17.80;83.65
22775;BME280;11554;51.106;3.684;2022-07-06T23:45:00;102227.44;;;17.81;84.32
22775;BME280;11554;51.106;3.684;2022-07-06T23:50:00;102221.09;;;17.82;83.65
22775;BME280;11554;51.106;3.684;2022-07-06T23:55:00;102216.27;;;17.82;82.77
